Time;durP1;ratioP1;P1;durP2;ratioP2;P2;SDS_P1;SDS_P2;PMS_P1;PMS_P2;Temp;Humidity;BMP_temperature;BMP_pressure;BME280_temperature;BME280_humidity;BME280_pressure;Samples;Min_cycle;Max_cycle;Signal;HPM_P1;HPM_P2
2023/08/16 00:04:30;;;;;;;10.8;7.4;;;;;;;21.19;82.61;;;;;
2023/08/16 00:15:30;;;;;;;10.8;7.4;;;;;;;21.08;81.72;;;;;
2023/08/16 00:25:30;;;;;;;9.7;7.7;;;;;;;20.87;81.63;;;;;
2023/08/16 00:35:30;;;;;;;9.7;7.7;;;;;;;20.72;81.61;;;;;
2023/08/16 00:46:30;;;;;;;9.7;7.7;;;;;;;20.55;82.56;;;;;
2023/08/16 00:56:30;;;;;;;10.2;7.2;;;;;;;20.39;82.69;;;;;
2023/08/16 01:07:30;;;;;;;10.2;7.2;;;;;;;20.31;83.49;;;;;
2023/08/16 01:17:30;;;;;;;10.2;7.2;;;;;;;20.18;83.2;;;;;
2023/08/16 01:28:30;;;;;;;11.8;7.5;;;;;;;19.94;84.64;;;;;
2023/08/16 01:38:30;;;;;;;11.8;7.5;;;;;;;19.89;85.16;;;;;
2023/08/16 01:48:30;;;;;;;11.8;7.5;;;;;;;19.76;85.49;;;;;
2023/08/16 01:58:30;;;;;;;10.3;7.5;;;;;;;19.72;85.19;;;;;
2023/08/16 02:09:30;;;;;;;10.3;7.5;;;;;;;19.73;85.87;;;;;
2023/08/16 02:19:30;;;;;;;10.3;7.5;;;;;;;19.82;86.14;;;;;
2023/08/16 02:29:30;;;;;;;10.1;7.4;;;;;;;19.98;85.9;;;;;
2023/08/16 02:40:30;;;;;;;10.1;7.4;;;;;;;20;86.39;;;;;
2023/08/16 02:50:30;;;;;;;10.1;7.4;;;;;;;20.03;86.46;;;;;
2023/08/16 03:00:31;;;;;;;11.2;7.9;;;;;;;20.17;86.18;;;;;
2023/08/16 03:11:30;;;;;;;11.2;7.9;;;;;;;20.31;85.22;;;;;
2023/08/16 03:21:30;;;;;;;9.8;6.7;;;;;;;20.23;85.06;;;;;
2023/08/16 03:31:30;;;;;;;9.8;6.7;;;;;;;20.11;84.9;;;;;
2023/08/16 03:42:30;;;;;;;9.8;6.7;;;;;;;19.89;84.89;;;;;
2023/08/16 03:53:30;;;;;;;12.3;7.8;;;;;;;19.76;84.94;;;;;
2023/08/16 04:04:30;;;;;;;12.3;7.8;;;;;;;19.68;85.14;;;;;
2023/08/16 04:14:30;;;;;;;12.3;7.8;;;;;;;19.72;85.27;;;;;
2023/08/16 04:24:30;;;;;;;16.5;12.5;;;;;;;19.82;85.8;;;;;
2023/08/16 04:35:30;;;;;;;16.5;12.5;;;;;;;20.24;85.16;;;;;
2023/08/16 04:46:30;;;;;;;16.5;12.5;;;;;;;20.63;84.6;;;;;
2023/08/16 04:57:30;;;;;;;11.2;7.9;;;;;;;21.18;83.75;;;;;
2023/08/16 05:07:30;;;;;;;11.2;7.9;;;;;;;21.69;81.84;;;;;
2023/08/16 05:18:30;;;;;;;11.2;7.9;;;;;;;22.13;80.56;;;;;
2023/08/16 05:29:30;;;;;;;10.5;6.9;;;;;;;22.62;77.73;;;;;
2023/08/16 05:40:30;;;;;;;10.5;6.9;;;;;;;23.17;77;;;;;
2023/08/16 05:51:30;;;;;;;9.9;5.9;;;;;;;23.67;75.97;;;;;
2023/08/16 06:01:30;;;;;;;9.9;5.9;;;;;;;23.96;73.12;;;;;
2023/08/16 06:12:30;;;;;;;9.9;5.9;;;;;;;24.38;74;;;;;
2023/08/16 06:23:30;;;;;;;10.4;6.7;;;;;;;24.63;72.37;;;;;
2023/08/16 06:33:30;;;;;;;10.4;6.7;;;;;;;24.9;70.76;;;;;
2023/08/16 06:44:30;;;;;;;10.4;6.7;;;;;;;25.15;68.79;;;;;
2023/08/16 06:55:30;;;;;;;8.4;5.6;;;;;;;25.63;70.35;;;;;
2023/08/16 07:06:31;;;;;;;8.4;5.6;;;;;;;25.94;66.77;;;;;
2023/08/16 07:17:30;;;;;;;8.4;5.6;;;;;;;26.31;66.46;;;;;
2023/08/16 07:28:30;;;;;;;11.2;5.8;;;;;;;26.69;64.93;;;;;
2023/08/16 07:39:31;;;;;;;11.2;5.8;;;;;;;27.24;63.16;;;;;
2023/08/16 07:50:30;;;;;;;;;;;;;;;;;;;;;
2023/08/16 08:01:30;;;;;;;9.6;7;;;;;;;28.12;59.74;;;;;
2023/08/16 08:12:30;;;;;;;9.6;7;;;;;;;28.34;53.71;;;;;
2023/08/16 08:22:30;;;;;;;13.6;8.5;;;;;;;28.7;56.13;;;;;
2023/08/16 08:32:30;;;;;;;13.6;8.5;;;;;;;28.83;55.34;;;;;
2023/08/16 08:42:30;;;;;;;13.6;8.5;;;;;;;29.13;56.01;;;;;
2023/08/16 08:53:30;;;;;;;10.5;6.5;;;;;;;29.26;56.4;;;;;
2023/08/16 09:03:31;;;;;;;10.5;6.5;;;;;;;29.52;55.54;;;;;
2023/08/16 09:13:30;;;;;;;10.5;6.5;;;;;;;29.87;54.34;;;;;
2023/08/16 09:23:30;;;;;;;12.1;7;;;;;;;30.06;49.44;;;;;
2023/08/16 09:34:30;;;;;;;12.1;7;;;;;;;30.29;49.79;;;;;
2023/08/16 09:44:30;;;;;;;12.1;7;;;;;;;30.53;48.98;;;;;
2023/08/16 09:54:30;;;;;;;9.8;6.4;;;;;;;30.68;48.42;;;;;
2023/08/16 10:04:30;;;;;;;9.8;6.4;;;;;;;30.9;48.08;;;;;
2023/08/16 10:15:30;;;;;;;9.8;6.4;;;;;;;31.01;46.64;;;;;
2023/08/16 10:25:30;;;;;;;8.4;5.9;;;;;;;31.14;49.67;;;;;
2023/08/16 10:35:30;;;;;;;8.4;5.9;;;;;;;31.48;48.82;;;;;
2023/08/16 10:46:30;;;;;;;8.4;5.9;;;;;;;32.13;46.18;;;;;
2023/08/16 10:56:31;;;;;;;9.2;6.5;;;;;;;32.39;44.13;;;;;
2023/08/16 11:07:30;;;;;;;9.2;6.5;;;;;;;32.84;47.15;;;;;
2023/08/16 11:17:30;;;;;;;9.2;6.5;;;;;;;33.14;44.99;;;;;
2023/08/16 11:27:30;;;;;;;8.3;5.9;;;;;;;33.53;47.41;;;;;
2023/08/16 11:38:30;;;;;;;8.3;5.9;;;;;;;33.33;45.05;;;;;
2023/08/16 11:48:30;;;;;;;;;;;;;;;;;;;;;
2023/08/16 11:59:31;;;;;;;11.8;6.3;;;;;;;34.05;45.64;;;;;
2023/08/16 12:10:32;;;;;;;11.8;6.3;;;;;;;34.59;46.49;;;;;
2023/08/16 12:20:30;;;;;;;11.8;6.3;;;;;;;34.13;43.88;;;;;
2023/08/16 12:31:30;;;;;;;8;5.5;;;;;;;33.54;46.57;;;;;
2023/08/16 12:41:30;;;;;;;8;5.5;;;;;;;33.37;43.99;;;;;
2023/08/16 12:51:31;;;;;;;8;5.5;;;;;;;33.16;43.09;;;;;
2023/08/16 13:02:30;;;;;;;8.8;5.9;;;;;;;32.84;45.2;;;;;
2023/08/16 13:13:30;;;;;;;8.8;5.9;;;;;;;32.79;46.23;;;;;
2023/08/16 13:24:30;;;;;;;9.8;6;;;;;;;32.59;47.77;;;;;
2023/08/16 13:34:30;;;;;;;9.8;6;;;;;;;32.34;48.5;;;;;
2023/08/16 13:44:30;;;;;;;9.8;6;;;;;;;32.07;49.58;;;;;
2023/08/16 13:54:30;;;;;;;9.2;5.6;;;;;;;31.97;50.57;;;;;
2023/08/16 14:05:30;;;;;;;9.2;5.6;;;;;;;31.36;52;;;;;
2023/08/16 14:15:31;;;;;;;9.2;5.6;;;;;;;30.72;54.93;;;;;
2023/08/16 14:25:31;;;;;;;10.3;6.2;;;;;;;30.46;57.86;;;;;
2023/08/16 14:36:30;;;;;;;10.3;6.2;;;;;;;30.26;56.51;;;;;
2023/08/16 14:46:30;;;;;;;10.3;6.2;;;;;;;29.6;57.43;;;;;
2023/08/16 14:56:31;;;;;;;10.5;6.3;;;;;;;29.71;56.18;;;;;
2023/08/16 15:07:31;;;;;;;10.5;6.3;;;;;;;29.49;58.85;;;;;
2023/08/16 15:18:31;;;;;;;10.5;6.3;;;;;;;29.71;57.64;;;;;
2023/08/16 15:28:31;;;;;;;11.3;7.8;;;;;;;30.24;56.15;;;;;
2023/08/16 15:39:30;;;;;;;11.3;7.8;;;;;;;29.67;57.35;;;;;
2023/08/16 15:49:31;;;;;;;11.3;7.8;;;;;;;29.3;58.02;;;;;
2023/08/16 16:00:31;;;;;;;13.4;7.1;;;;;;;28.74;60.25;;;;;
2023/08/16 16:11:32;;;;;;;13.4;7.1;;;;;;;28.19;60.76;;;;;
2023/08/16 16:21:33;;;;;;;13.4;7.1;;;;;;;28.07;61.67;;;;;
2023/08/16 16:31:31;;;;;;;12.7;6.9;;;;;;;27.57;62.34;;;;;
2023/08/16 16:42:31;;;;;;;12.7;6.9;;;;;;;27.33;63.22;;;;;
2023/08/16 16:53:31;;;;;;;9.4;6.5;;;;;;;27.09;63.62;;;;;
2023/08/16 17:04:31;;;;;;;9.4;6.5;;;;;;;26.79;63.99;;;;;
2023/08/16 17:14:31;;;;;;;9.4;6.5;;;;;;;26.74;64.71;;;;;
2023/08/16 17:24:31;;;;;;;13.8;7.5;;;;;;;26.44;65.84;;;;;
2023/08/16 17:34:31;;;;;;;13.8;7.5;;;;;;;26.37;66.07;;;;;
2023/08/16 17:44:31;;;;;;;;;;;;;;;;;;;;;
2023/08/16 17:55:31;;;;;;;;;;;;;;;;;;;;;
2023/08/16 18:05:31;;;;;;;10.4;9.1;;;;;;;25.71;68.33;;;;;
2023/08/16 18:15:31;;;;;;;10.4;9.1;;;;;;;25.44;69.69;;;;;
2023/08/16 18:25:31;;;;;;;11.3;8.7;;;;;;;25.22;70.52;;;;;
2023/08/16 18:36:31;;;;;;;11.3;8.7;;;;;;;25.13;70.09;;;;;
2023/08/16 18:46:31;;;;;;;11.3;8.7;;;;;;;24.89;71.2;;;;;
2023/08/16 18:56:31;;;;;;;12.8;8.7;;;;;;;24.75;71.57;;;;;
2023/08/16 19:07:31;;;;;;;12.8;8.7;;;;;;;24.69;71.92;;;;;
2023/08/16 19:17:31;;;;;;;12.8;8.7;;;;;;;24.56;72.52;;;;;
2023/08/16 19:27:31;;;;;;;12.6;9.6;;;;;;;24.47;72.49;;;;;
2023/08/16 19:37:31;;;;;;;12.6;9.6;;;;;;;24.38;72.52;;;;;
2023/08/16 19:48:31;;;;;;;12.6;9.6;;;;;;;24.21;73.48;;;;;
2023/08/16 19:58:31;;;;;;;12.3;9.5;;;;;;;24.16;73.59;;;;;
2023/08/16 20:09:31;;;;;;;12.3;9.5;;;;;;;24.08;73.72;;;;;
2023/08/16 20:19:31;;;;;;;12.3;9.5;;;;;;;23.95;74.27;;;;;
2023/08/16 20:30:31;;;;;;;17.3;12;;;;;;;23.79;75.34;;;;;
2023/08/16 20:41:31;;;;;;;17.3;12;;;;;;;23.57;76.01;;;;;
2023/08/16 20:52:31;;;;;;;17.3;12;;;;;;;23.52;75.24;;;;;
2023/08/16 21:03:31;;;;;;;12.6;9.7;;;;;;;23.4;76.3;;;;;
2023/08/16 21:14:31;;;;;;;12.6;9.7;;;;;;;23.3;76.17;;;;;
2023/08/16 21:25:31;;;;;;;12.8;8.5;;;;;;;23.32;70.69;;;;;
2023/08/16 21:36:31;;;;;;;12.8;8.5;;;;;;;23.64;66.13;;;;;
2023/08/16 21:47:31;;;;;;;12.8;8.5;;;;;;;23.77;65.72;;;;;
2023/08/16 21:58:31;;;;;;;10;5.8;;;;;;;23.66;70.36;;;;;
2023/08/16 22:08:31;;;;;;;10;5.8;;;;;;;23.46;72.52;;;;;
2023/08/16 22:18:31;;;;;;;10;5.8;;;;;;;23.35;72.73;;;;;
2023/08/16 22:29:32;;;;;;;11.8;7.8;;;;;;;23.26;72.5;;;;;
2023/08/16 22:40:31;;;;;;;11.8;7.8;;;;;;;23.05;73.65;;;;;
2023/08/16 22:50:31;;;;;;;11.8;7.8;;;;;;;22.98;72.6;;;;;
2023/08/16 23:01:31;;;;;;;9.4;6.9;;;;;;;22.97;71.92;;;;;
2023/08/16 23:11:31;;;;;;;9.4;6.9;;;;;;;22.96;70.74;;;;;
2023/08/16 23:22:31;;;;;;;9.4;6.9;;;;;;;22.83;71.73;;;;;
2023/08/16 23:32:31;;;;;;;9.5;5.9;;;;;;;22.64;74.93;;;;;
2023/08/16 23:43:31;;;;;;;9.5;5.9;;;;;;;22.51;75.38;;;;;
2023/08/16 23:53:31;;;;;;;12;6.2;;;;;;;22.45;74.66;;;;;
